Time;durP1;ratioP1;P1;durP2;ratioP2;P2;SDS_P1;SDS_P2;PMS_P1;PMS_P2;Temp;Humidity;BMP_temperature;BMP_pressure;BME280_temperature;BME280_humidity;BME280_pressure;Samples;Min_cycle;Max_cycle;Signal;HPM_P1;HPM_P2
2023/04/14 00:00:20;;;;;;;;;;;;;;;16.80;50.17;100931.47;2068302;28;19976;-53
2023/04/14 00:01:22;;;;;;;;;;;;;;;16.80;50.02;100930.69;2062580;28;20662;-53
2023/04/14 00:02:24;;;;;;;;;;;;;;;16.79;50.30;100929.91;2062016;28;19981;-54
2023/04/14 00:03:27;;;;;;;;;;;;;;;16.79;50.01;100929.91;2063522;28;19983;-54
2023/04/14 00:04:29;;;;;;;;;;;;;;;16.78;50.26;100933.81;2063478;28;19930;-55
2023/04/14 00:05:32;;;;;;;;;;;;;;;16.78;50.12;100938.47;2064788;28;19929;-55
2023/04/14 00:06:34;;;;;;;;;;;;;;;16.78;50.25;100933.00;2071962;28;19949;-56
2023/04/14 00:07:36;;;;;;;;;;;;;;;16.77;50.15;100940.44;2071869;28;19975;-54
2023/04/14 00:08:38;;;;;;;;;;;;;;;16.79;50.24;100942.78;2067890;28;19956;-55
2023/04/14 00:09:42;;;;;;;;;;;;;;;16.77;50.23;100936.91;2067859;28;19926;-54
2023/04/14 00:10:44;;;;;;;;;;;;;;;16.77;50.11;100943.16;2071639;28;19929;-55
2023/04/14 00:11:48;;;;;;;;;;;;;;;16.77;50.09;100939.63;2065857;28;20624;-54
2023/04/14 00:12:50;;;;;;;;;;;;;;;16.78;49.96;100941.19;2072004;28;19975;-55
2023/04/14 00:13:54;;;;;;;;;;;;;;;16.77;49.88;100942.34;2072700;28;19975;-54
2023/04/14 00:14:57;;;;;;;;;;;;;;;16.77;49.92;100942.34;2073342;28;19929;-54
2023/04/14 00:16:00;;;;;;;;;;;;;;;16.76;49.98;100944.28;2073697;28;20373;-54
2023/04/14 00:17:02;;;;;;;;;;;;;;;16.77;50.08;100942.34;2070777;28;20345;-54
2023/04/14 00:18:04;;;;;;;;;;;;;;;16.76;50.05;100946.25;2065844;28;19944;-54
2023/04/14 00:19:06;;;;;;;;;;;;;;;16.76;49.95;100946.25;2077247;28;20372;-53
2023/04/14 00:20:09;;;;;;;;;;;;;;;16.77;49.97;100953.28;2073457;28;19929;-53
2023/04/14 00:21:12;;;;;;;;;;;;;;;16.76;50.10;100951.72;2070225;28;19940;-53
2023/04/14 00:22:13;;;;;;;;;;;;;;;16.76;49.84;100952.47;2064275;28;19965;-54
2023/04/14 00:23:17;;;;;;;;;;;;;;;16.77;49.97;100953.28;2064892;28;19976;-54
2023/04/14 00:24:19;;;;;;;;;;;;;;;16.76;50.05;100954.44;2073058;28;20316;-55
2023/04/14 00:25:21;;;;;;;;;;;;;;;16.75;50.00;100950.91;2069173;28;20374;-53
2023/04/14 00:26:23;;;;;;;;;;;;;;;16.75;50.10;100950.13;2066508;28;20191;-53
2023/04/14 00:27:26;;;;;;;;;;;;;;;16.76;50.16;100943.53;2072449;28;19929;-53
2023/04/14 00:28:28;;;;;;;;;;;;;;;16.76;50.18;100952.47;2064464;28;20282;-54
2023/04/14 00:29:31;;;;;;;;;;;;;;;16.75;49.84;100961.03;2064938;28;19977;-54
2023/04/14 00:30:34;;;;;;;;;;;;;;;16.75;50.14;100948.19;2072437;28;19979;-53
2023/04/14 00:31:37;;;;;;;;;;;;;;;16.75;49.83;100950.13;2062764;28;20329;-54
2023/04/14 00:32:39;;;;;;;;;;;;;;;16.75;49.77;100955.59;2064528;28;20024;-54
2023/04/14 00:33:41;;;;;;;;;;;;;;;16.75;49.87;100950.91;2064329;28;20321;-53
2023/04/14 00:34:43;;;;;;;;;;;;;;;16.75;49.91;100955.59;2064627;28;20384;-54
2023/04/14 00:35:46;;;;;;;;;;;;;;;16.74;49.82;100951.31;2064670;28;19937;-53
2023/04/14 00:36:48;;;;;;;;;;;;;;;16.74;49.86;100956.75;2064554;28;19929;-54
2023/04/14 00:37:51;;;;;;;;;;;;;;;16.74;49.89;100957.53;2072780;28;19932;-56
2023/04/14 00:38:53;;;;;;;;;;;;;;;16.74;49.83;100960.28;2068593;28;20386;-56
2023/04/14 00:39:56;;;;;;;;;;;;;;;16.74;49.63;100957.53;2073177;28;20301;-54
2023/04/14 00:40:57;;;;;;;;;;;;;;;16.74;49.87;100959.47;2072987;28;19929;-54
2023/04/14 00:42:00;;;;;;;;;;;;;;;16.73;49.59;100961.41;2072561;28;19926;-53
2023/04/14 00:43:04;;;;;;;;;;;;;;;16.73;49.58;100955.19;2072168;28;20789;-54
2023/04/14 00:44:06;;;;;;;;;;;;;;;16.73;49.44;100960.66;2072730;28;19929;-53
2023/04/14 00:45:09;;;;;;;;;;;;;;;16.73;49.77;100963.38;2076586;28;19936;-54
2023/04/14 00:46:15;;;;;;;;;;;;;;;16.72;49.83;100964.53;2069599;28;20390;-53
2023/04/14 00:47:21;;;;;;;;;;;;;;;16.72;49.69;100967.25;2068949;28;20277;-52
2023/04/14 00:48:23;;;;;;;;;;;;;;;16.72;49.52;100972.69;2069654;28;19930;-55
2023/04/14 00:49:26;;;;;;;;;;;;;;;16.72;49.77;100975.44;2068843;28;20393;-55
2023/04/14 00:50:28;;;;;;;;;;;;;;;16.71;49.73;100971.94;2073169;28;20001;-54
2023/04/14 00:51:32;;;;;;;;;;;;;;;16.72;49.75;100969.97;2063172;28;19930;-55
2023/04/14 00:52:35;;;;;;;;;;;;;;;16.71;49.98;100977.38;2064726;28;19929;-55
2023/04/14 00:53:38;;;;;;;;;;;;;;;16.71;49.55;100971.94;2072663;28;20278;-55
2023/04/14 00:54:40;;;;;;;;;;;;;;;16.71;49.73;100971.94;2070486;28;19937;-55
2023/04/14 00:55:42;;;;;;;;;;;;;;;16.73;49.73;100974.28;2065349;28;20448;-53
2023/04/14 00:56:45;;;;;;;;;;;;;;;16.71;49.71;100966.47;2070438;28;19990;-56
2023/04/14 00:57:47;;;;;;;;;;;;;;;16.72;49.80;100973.50;2065469;28;19984;-55
2023/04/14 00:58:50;;;;;;;;;;;;;;;16.71;49.59;100971.94;2078723;28;19929;-53
2023/04/14 00:59:53;;;;;;;;;;;;;;;16.71;49.79;100963.75;2065813;28;20692;-53
2023/04/14 01:00:55;;;;;;;;;;;;;;;16.71;49.52;100971.94;2067458;28;19960;-53
2023/04/14 01:01:59;;;;;;;;;;;;;;;16.71;49.78;100976.59;2067214;28;19933;-54
2023/04/14 01:03:02;;;;;;;;;;;;;;;16.71;49.69;100971.94;2071918;28;20468;-53
2023/04/14 01:04:05;;;;;;;;;;;;;;;16.70;49.35;100967.63;2071885;28;19960;-54
2023/04/14 01:05:09;;;;;;;;;;;;;;;16.71;49.48;100973.88;2072945;28;20376;-58
2023/04/14 01:06:12;;;;;;;;;;;;;;;16.71;49.48;100976.59;2073270;28;20377;-57
2023/04/14 01:07:14;;;;;;;;;;;;;;;16.70;49.52;100970.34;2072851;28;19929;-56
2023/04/14 01:08:18;;;;;;;;;;;;;;;16.70;49.67;100969.59;2072600;28;19933;-57
2023/04/14 01:09:20;;;;;;;;;;;;;;;16.70;49.41;100975.81;2069223;28;19926;-57
2023/04/14 01:10:24;;;;;;;;;;;;;;;16.70;49.63;100980.50;2062095;28;19933;-58
2023/04/14 01:11:29;;;;;;;;;;;;;;;16.70;49.61;100983.22;2060941;28;19934;-54
2023/04/14 01:12:39;;;;;;;;;;;;;;;16.69;49.49;100981.63;2072616;28;19941;-57
2023/04/14 01:13:47;;;;;;;;;;;;;;;16.69;49.55;100979.69;2063342;28;20373;-58
2023/04/14 01:14:53;;;;;;;;;;;;;;;16.68;49.27;100983.56;2065873;28;19933;-58
2023/04/14 01:15:56;;;;;;;;;;;;;;;16.69;49.49;100982.44;2064923;28;20759;-56
2023/04/14 01:17:05;;;;;;;;;;;;;;;16.69;49.61;100985.16;2065352;28;20044;-58
2023/04/14 01:18:13;;;;;;;;;;;;;;;16.69;49.68;100981.63;2059266;28;19934;-57
2023/04/14 01:19:27;;;;;;;;;;;;;;;16.69;49.50;100984.38;2072349;28;20120;-56
2023/04/14 01:20:32;;;;;;;;;;;;;;;16.69;49.70;100989.81;2071916;28;19987;-57
2023/04/14 01:21:35;;;;;;;;;;;;;;;16.69;49.70;100984.38;2069171;28;19972;-57
2023/04/14 01:22:43;;;;;;;;;;;;;;;16.69;49.62;100987.88;2072542;28;20505;-58
2023/04/14 01:23:51;;;;;;;;;;;;;;;16.69;49.39;100985.16;2071535;28;20384;-57
2023/04/14 01:25:05;;;;;;;;;;;;;;;16.69;49.47;100992.53;2069675;28;19930;-58
2023/04/14 01:26:26;;;;;;;;;;;;;;;16.69;49.36;100987.09;2078286;28;19933;-57
2023/04/14 01:27:35;;;;;;;;;;;;;;;16.69;49.33;100989.81;2063940;28;19926;-57
2023/04/14 01:28:59;;;;;;;;;;;;;;;16.69;49.50;100987.09;2061930;28;20329;-57
2023/04/14 01:30:18;;;;;;;;;;;;;;;16.68;49.49;100983.56;2062028;28;20904;-58
2023/04/14 01:31:25;;;;;;;;;;;;;;;16.68;49.26;100983.56;2058282;28;20295;-57
2023/04/14 01:32:29;;;;;;;;;;;;;;;16.67;49.39;100987.47;2050308;28;19930;-55
2023/04/14 01:33:33;;;;;;;;;;;;;;;16.68;49.44;100988.25;2063672;28;19930;-56
2023/04/14 01:34:37;;;;;;;;;;;;;;;16.68;49.37;100988.25;2073283;28;20403;-57
2023/04/14 01:35:45;;;;;;;;;;;;;;;16.67;49.27;100982.00;2065273;28;19992;-57
2023/04/14 01:36:51;;;;;;;;;;;;;;;16.68;49.43;100988.25;2052434;28;19977;-57
2023/04/14 01:38:00;;;;;;;;;;;;;;;16.68;49.15;100988.25;2054182;28;19933;-58
2023/04/14 01:39:04;;;;;;;;;;;;;;;16.67;49.25;100986.69;2058484;28;20422;-58
2023/04/14 01:40:11;;;;;;;;;;;;;;;16.66;49.00;100988.63;2061049;28;19934;-58
2023/04/14 01:41:15;;;;;;;;;;;;;;;16.66;49.26;100990.56;2064484;28;20723;-59
2023/04/14 01:42:19;;;;;;;;;;;;;;;16.66;49.21;100985.91;2063657;28;20445;-58
2023/04/14 01:43:23;;;;;;;;;;;;;;;16.66;49.08;100994.09;2064121;28;19930;-56
2023/04/14 01:44:29;;;;;;;;;;;;;;;16.65;49.10;100989.03;2072191;28;19980;-57
2023/04/14 01:45:33;;;;;;;;;;;;;;;16.65;48.86;100989.78;2072617;28;20271;-59
2023/04/14 01:46:38;;;;;;;;;;;;;;;16.64;48.92;100996.41;2072137;28;20701;-56
2023/04/14 01:47:40;;;;;;;;;;;;;;;16.65;48.77;100991.75;2066092;28;19929;-57
2023/04/14 01:48:43;;;;;;;;;;;;;;;16.64;49.01;100995.63;2072067;28;19930;-59
2023/04/14 01:49:46;;;;;;;;;;;;;;;16.64;48.76;100992.88;2067594;28;19934;-56
2023/04/14 01:50:49;;;;;;;;;;;;;;;16.63;48.93;101002.22;2072882;28;19925;-58
2023/04/14 01:51:51;;;;;;;;;;;;;;;16.63;48.73;101003.03;2071233;28;19929;-57
2023/04/14 01:52:54;;;;;;;;;;;;;;;16.63;48.97;101002.22;2072165;28;19926;-57
2023/04/14 01:53:57;;;;;;;;;;;;;;;16.63;48.98;101003.03;2072180;28;20431;-58
2023/04/14 01:55:04;;;;;;;;;;;;;;;16.62;48.90;101006.91;2067620;28;19930;-57
2023/04/14 01:56:07;;;;;;;;;;;;;;;16.63;49.13;101010.41;2072693;28;19933;-57
2023/04/14 01:57:10;;;;;;;;;;;;;;;16.62;48.79;101006.13;2071263;28;19925;-58
2023/04/14 01:58:16;;;;;;;;;;;;;;;16.62;48.78;101009.63;2063684;28;20368;-56
2023/04/14 01:59:19;;;;;;;;;;;;;;;16.62;48.97;101011.59;2059852;28;19973;-57
2023/04/14 02:00:24;;;;;;;;;;;;;;;16.62;48.96;101012.34;2056622;28;19930;-57
2023/04/14 02:01:26;;;;;;;;;;;;;;;16.62;48.97;101017.03;2063803;28;19937;-54
2023/04/14 02:02:32;;;;;;;;;;;;;;;16.61;48.63;101018.19;2063604;28;19930;-57
2023/04/14 02:03:36;;;;;;;;;;;;;;;16.61;48.59;101016.25;2064525;28;19929;-56
2023/04/14 02:04:41;;;;;;;;;;;;;;;16.61;48.84;101015.44;2066925;28;19975;-58
2023/04/14 02:05:43;;;;;;;;;;;;;;;16.61;48.93;101018.97;2074695;28;20388;-58
2023/04/14 02:06:47;;;;;;;;;;;;;;;16.61;48.84;101026.34;2065172;28;20799;-55
2023/04/14 02:07:50;;;;;;;;;;;;;;;16.60;48.96;101019.34;2063987;28;20365;-58
2023/04/14 02:08:55;;;;;;;;;;;;;;;16.60;48.73;101025.59;2058784;28;19949;-56
2023/04/14 02:09:59;;;;;;;;;;;;;;;16.61;48.71;101021.69;2063714;28;20460;-57
2023/04/14 02:11:02;;;;;;;;;;;;;;;16.60;48.78;101017.41;2063643;28;20401;-57
2023/04/14 02:12:06;;;;;;;;;;;;;;;16.61;49.07;101024.44;2063483;28;20000;-56
2023/04/14 02:13:10;;;;;;;;;;;;;;;16.61;48.99;101023.63;2070195;28;19941;-58
2023/04/14 02:14:15;;;;;;;;;;;;;;;16.60;48.92;101024.81;2071190;28;19979;-57
2023/04/14 02:15:21;;;;;;;;;;;;;;;16.61;49.05;101020.91;2068208;28;19975;-59
2023/04/14 02:16:24;;;;;;;;;;;;;;;16.62;48.98;101027.94;2064543;28;19930;-58
2023/04/14 02:17:28;;;;;;;;;;;;;;;16.61;48.99;101026.34;2067197;28;19977;-56
2023/04/14 02:18:32;;;;;;;;;;;;;;;16.61;48.90;101026.34;2066098;28;19961;-58
2023/04/14 02:19:35;;;;;;;;;;;;;;;16.60;48.89;101022.06;2070390;28;19980;-56
2023/04/14 02:20:42;;;;;;;;;;;;;;;16.62;48.69;101030.66;2074561;28;20021;-58
2023/04/14 02:21:46;;;;;;;;;;;;;;;16.60;48.80;101031.03;2071717;28;19925;-57
2023/04/14 02:22:48;;;;;;;;;;;;;;;16.60;48.62;101032.97;2073513;28;19975;-58
2023/04/14 02:23:51;;;;;;;;;;;;;;;16.61;48.74;101034.53;2065284;28;20409;-58
2023/04/14 02:24:54;;;;;;;;;;;;;;;16.59;48.67;101036.84;2072330;28;19992;-57
2023/04/14 02:26:00;;;;;;;;;;;;;;;16.60;48.65;101041.94;2072642;28;20274;-56
2023/04/14 02:27:06;;;;;;;;;;;;;;;16.59;48.69;101045.81;2073074;28;20435;-58
2023/04/14 02:28:12;;;;;;;;;;;;;;;16.60;48.80;101046.59;2065672;28;20283;-58
2023/04/14 02:29:16;;;;;;;;;;;;;;;16.60;48.74;101046.59;2060724;28;19992;-58
2023/04/14 02:30:22;;;;;;;;;;;;;;;16.61;48.49;101048.16;2062098;28;20362;-54
2023/04/14 02:31:26;;;;;;;;;;;;;;;16.59;48.73;101056.72;2068532;28;19971;-58
2023/04/14 02:32:29;;;;;;;;;;;;;;;16.59;48.58;101047.75;2072502;28;19933;-57
2023/04/14 02:33:35;;;;;;;;;;;;;;;16.59;48.54;101053.19;2068643;28;19980;-57
2023/04/14 02:34:44;;;;;;;;;;;;;;;16.58;48.35;101046.97;2067049;28;20304;-58
2023/04/14 02:35:47;;;;;;;;;;;;;;;16.58;48.63;101049.72;2070875;28;20052;-55
2023/04/14 02:36:53;;;;;;;;;;;;;;;16.58;48.23;101049.72;2072275;28;19925;-58
2023/04/14 02:37:59;;;;;;;;;;;;;;;16.57;48.17;101039.94;2069341;28;20613;-58
2023/04/14 02:39:06;;;;;;;;;;;;;;;16.57;48.30;101039.19;2070724;28;19969;-57
2023/04/14 02:40:11;;;;;;;;;;;;;;;16.56;48.46;101046.56;2069088;28;19980;-57
2023/04/14 02:41:17;;;;;;;;;;;;;;;16.57;48.46;101039.19;2069173;28;19930;-58
2023/04/14 02:42:21;;;;;;;;;;;;;;;16.57;48.12;101047.38;2063312;28;20029;-58
2023/04/14 02:43:26;;;;;;;;;;;;;;;16.56;48.44;101045.78;2064176;28;20385;-57
2023/04/14 02:44:31;;;;;;;;;;;;;;;16.56;48.21;101045.78;2062965;28;20317;-57
2023/04/14 02:45:36;;;;;;;;;;;;;;;16.56;48.35;101037.59;2063714;28;19925;-57
2023/04/14 02:46:39;;;;;;;;;;;;;;;16.56;48.06;101048.50;2071669;28;19952;-58
2023/04/14 02:47:44;;;;;;;;;;;;;;;16.56;48.04;101043.06;2070125;28;20641;-57
2023/04/14 02:48:49;;;;;;;;;;;;;;;16.55;48.00;101049.66;2063481;28;19930;-57
2023/04/14 02:49:52;;;;;;;;;;;;;;;16.55;48.31;101049.66;2055792;28;19930;-55
2023/04/14 02:50:57;;;;;;;;;;;;;;;16.55;47.99;101046.94;2060300;28;19973;-57
2023/04/14 02:52:04;;;;;;;;;;;;;;;16.54;48.27;101048.88;2049641;28;19930;-57
2023/04/14 02:53:07;;;;;;;;;;;;;;;16.54;48.15;101053.56;2056009;28;19930;-58
2023/04/14 02:54:12;;;;;;;;;;;;;;;16.54;48.06;101059.03;2063541;28;20028;-56
2023/04/14 02:55:19;;;;;;;;;;;;;;;16.54;47.77;101059.03;2059116;28;20033;-58
2023/04/14 02:56:23;;;;;;;;;;;;;;;16.53;47.92;101058.22;2055886;28;20299;-58
2023/04/14 02:57:26;;;;;;;;;;;;;;;16.52;47.87;101059.41;2055759;28;20073;-55
2023/04/14 02:58:29;;;;;;;;;;;;;;;16.53;47.99;101060.16;2063233;28;19951;-58
2023/04/14 02:59:32;;;;;;;;;;;;;;;16.51;47.70;101057.81;2071401;28;19992;-57
2023/04/14 03:00:40;;;;;;;;;;;;;;;16.52;47.98;101064.06;2068048;28;19929;-58
2023/04/14 03:01:42;;;;;;;;;;;;;;;16.51;47.62;101063.25;2060852;28;19937;-56
2023/04/14 03:02:45;;;;;;;;;;;;;;;16.52;47.57;101066.78;2063590;28;19932;-57
2023/04/14 03:03:48;;;;;;;;;;;;;;;16.51;47.76;101065.22;2066720;28;20385;-57
2023/04/14 03:04:53;;;;;;;;;;;;;;;16.50;47.56;101063.63;2063927;28;20525;-56
2023/04/14 03:06:04;;;;;;;;;;;;;;;16.50;47.72;101063.63;2063185;28;19930;-57
2023/04/14 03:07:08;;;;;;;;;;;;;;;16.49;47.52;101068.28;2062716;28;20023;-54
2023/04/14 03:08:11;;;;;;;;;;;;;;;16.49;47.42;101062.06;2062942;28;19929;-56
2023/04/14 03:09:17;;;;;;;;;;;;;;;16.49;47.30;101064.81;2058826;28;20475;-56
2023/04/14 03:10:20;;;;;;;;;;;;;;;16.48;47.41;101071.41;2061654;28;19972;-61
2023/04/14 03:11:23;;;;;;;;;;;;;;;16.48;47.25;101065.94;2067290;28;19930;-56
2023/04/14 03:12:26;;;;;;;;;;;;;;;16.47;47.35;101067.09;2063389;28;19996;-57
2023/04/14 03:13:31;;;;;;;;;;;;;;;16.48;47.41;101074.13;2063343;28;19984;-58
2023/04/14 03:14:33;;;;;;;;;;;;;;;16.47;47.47;101067.09;2071689;28;19929;-57
2023/04/14 03:15:37;;;;;;;;;;;;;;;16.46;47.38;101079.94;2061539;28;19930;-57
2023/04/14 03:16:40;;;;;;;;;;;;;;;16.46;47.24;101071.78;2062355;28;20385;-59
2023/04/14 03:17:45;;;;;;;;;;;;;;;16.46;47.34;101073.72;2063500;28;20044;-58
2023/04/14 03:18:47;;;;;;;;;;;;;;;16.46;47.13;101079.94;2055060;28;20021;-59
2023/04/14 03:19:53;;;;;;;;;;;;;;;16.44;47.07;101074.06;2063200;28;19929;-56
2023/04/14 03:20:56;;;;;;;;;;;;;;;16.44;47.20;101083.03;2063406;28;20526;-58
2023/04/14 03:21:59;;;;;;;;;;;;;;;16.44;47.38;101085.78;2062346;28;19992;-58
2023/04/14 03:23:03;;;;;;;;;;;;;;;16.44;47.25;101079.53;2062676;28;19976;-59
2023/04/14 03:24:13;;;;;;;;;;;;;;;16.43;47.44;101081.47;2064105;28;20454;-58
2023/04/14 03:25:15;;;;;;;;;;;;;;;16.42;47.37;101085.34;2061399;28;20033;-57
2023/04/14 03:26:23;;;;;;;;;;;;;;;16.43;47.17;101086.13;2054105;28;20497;-58
2023/04/14 03:27:26;;;;;;;;;;;;;;;16.42;47.43;101082.63;2063884;28;20048;-58
2023/04/14 03:28:30;;;;;;;;;;;;;;;16.42;47.23;101076.38;2069294;28;19926;-57
2023/04/14 03:29:35;;;;;;;;;;;;;;;16.43;47.17;101075.22;2050568;28;19937;-58
2023/04/14 03:30:40;;;;;;;;;;;;;;;16.42;47.28;101081.84;2052987;28;19973;-57
2023/04/14 03:31:43;;;;;;;;;;;;;;;16.42;47.38;101079.09;2062990;28;19930;-56
2023/04/14 03:32:47;;;;;;;;;;;;;;;16.41;47.28;101081.03;2071249;28;20495;-57
2023/04/14 03:33:55;;;;;;;;;;;;;;;16.42;47.19;101079.91;2068052;28;20021;-58
2023/04/14 03:35:05;;;;;;;;;;;;;;;16.41;47.36;101081.03;2066010;28;19933;-57
2023/04/14 03:36:09;;;;;;;;;;;;;;;16.41;47.28;101078.31;2071422;28;19940;-56
2023/04/14 03:37:12;;;;;;;;;;;;;;;16.41;47.22;101083.75;2067250;28;19933;-56
2023/04/14 03:38:16;;;;;;;;;;;;;;;16.41;47.39;101089.22;2071736;28;19951;-57
2023/04/14 03:39:19;;;;;;;;;;;;;;;16.41;47.17;101083.75;2066076;28;19930;-58
2023/04/14 03:40:22;;;;;;;;;;;;;;;16.41;47.13;101094.66;2061349;28;20025;-57
2023/04/14 03:41:24;;;;;;;;;;;;;;;16.41;47.22;101091.94;2058989;28;19937;-58
2023/04/14 03:42:28;;;;;;;;;;;;;;;16.42;47.03;101090.00;2067870;28;19976;-57
2023/04/14 03:43:32;;;;;;;;;;;;;;;16.40;47.10;101084.94;2063416;28;20413;-58
2023/04/14 03:44:44;;;;;;;;;;;;;;;16.40;47.21;101086.88;2067955;28;19926;-57
2023/04/14 03:45:48;;;;;;;;;;;;;;;16.41;46.88;101085.72;2070602;28;20440;-57
2023/04/14 03:46:53;;;;;;;;;;;;;;;16.39;47.01;101086.06;2063181;28;19976;-56
2023/04/14 03:47:59;;;;;;;;;;;;;;;16.39;46.86;101091.53;2047661;28;20361;-58
2023/04/14 03:49:05;;;;;;;;;;;;;;;16.39;46.91;101086.06;2053412;28;19941;-56
2023/04/14 03:50:09;;;;;;;;;;;;;;;16.39;46.92;101085.31;2060173;28;20329;-57
2023/04/14 03:51:13;;;;;;;;;;;;;;;16.38;46.96;101087.25;2063276;28;20013;-57
2023/04/14 03:52:16;;;;;;;;;;;;;;;16.38;46.82;101084.50;2062961;28;20384;-56
2023/04/14 03:53:20;;;;;;;;;;;;;;;16.38;46.76;101084.50;2059556;28;20394;-58
2023/04/14 03:54:23;;;;;;;;;;;;;;;16.38;46.62;101084.50;2071664;28;19944;-57
2023/04/14 03:55:26;;;;;;;;;;;;;;;16.37;46.75;101088.41;2072939;28;19979;-58
2023/04/14 03:56:30;;;;;;;;;;;;;;;16.37;46.97;101084.88;2065713;28;19930;-57
2023/04/14 03:57:33;;;;;;;;;;;;;;;16.37;46.85;101085.69;2060815;28;20294;-56
2023/04/14 03:58:35;;;;;;;;;;;;;;;16.36;46.74;101086.81;2070293;28;19991;-55
2023/04/14 03:59:40;;;;;;;;;;;;;;;16.37;46.65;101087.63;2067428;28;20498;-57
2023/04/14 04:00:42;;;;;;;;;;;;;;;16.37;46.98;101085.69;2062314;28;19929;-57
2023/04/14 04:01:46;;;;;;;;;;;;;;;16.36;46.68;101086.81;2046331;28;19926;-57
2023/04/14 04:02:48;;;;;;;;;;;;;;;16.36;46.59;101092.28;2055583;28;20584;-55
2023/04/14 04:03:53;;;;;;;;;;;;;;;16.35;46.58;101090.72;2078217;28;19968;-56
2023/04/14 04:04:57;;;;;;;;;;;;;;;16.34;46.58;101094.59;2064998;28;20000;-57
2023/04/14 04:06:02;;;;;;;;;;;;;;;16.35;46.81;101092.66;2061275;28;19930;-57
2023/04/14 04:07:09;;;;;;;;;;;;;;;16.35;46.61;101098.09;2070255;28;19937;-58
2023/04/14 04:08:12;;;;;;;;;;;;;;;16.35;46.70;101098.88;2072159;28;20750;-58
2023/04/14 04:09:18;;;;;;;;;;;;;;;16.34;46.80;101094.59;2067847;28;20203;-56
2023/04/14 04:10:22;;;;;;;;;;;;;;;16.34;46.65;101091.88;2068361;28;20618;-58
2023/04/14 04:11:26;;;;;;;;;;;;;;;16.33;46.58;101098.47;2067233;28;20404;-58
2023/04/14 04:12:29;;;;;;;;;;;;;;;16.33;46.56;101098.47;2068975;28;19929;-57
2023/04/14 04:13:32;;;;;;;;;;;;;;;16.33;46.63;101098.47;2053694;28;19934;-57
2023/04/14 04:14:38;;;;;;;;;;;;;;;16.32;46.68;101096.91;2055240;28;20414;-58
2023/04/14 04:15:41;;;;;;;;;;;;;;;16.33;46.57;101103.16;2066403;28;20401;-56
2023/04/14 04:16:48;;;;;;;;;;;;;;;16.32;46.69;101105.09;2068686;28;19945;-53
2023/04/14 04:17:50;;;;;;;;;;;;;;;16.33;46.67;101100.44;2063196;28;19984;-55
2023/04/14 04:18:53;;;;;;;;;;;;;;;16.33;46.45;101098.47;2063196;28;19929;-58
2023/04/14 04:20:04;;;;;;;;;;;;;;;16.33;46.79;101103.16;2062873;28;20263;-57
2023/04/14 04:21:10;;;;;;;;;;;;;;;16.33;46.72;101103.16;2064132;28;19933;-57
2023/04/14 04:22:15;;;;;;;;;;;;;;;16.32;46.57;101107.81;2061853;28;20025;-59
2023/04/14 04:23:19;;;;;;;;;;;;;;;16.32;46.70;101101.56;2067887;28;19929;-55
2023/04/14 04:24:22;;;;;;;;;;;;;;;16.32;46.52;101109.75;2078239;28;20023;-58
2023/04/14 04:25:25;;;;;;;;;;;;;;;16.31;46.46;101106.25;2054692;28;19976;-58
2023/04/14 04:26:39;;;;;;;;;;;;;;;16.31;46.62;101108.97;2049801;28;19982;-57
2023/04/14 04:27:41;;;;;;;;;;;;;;;16.31;46.67;101106.25;2047605;28;19934;-56
2023/04/14 04:28:50;;;;;;;;;;;;;;;16.31;46.43;101100.81;2056450;28;19937;-58
2023/04/14 04:29:51;;;;;;;;;;;;;;;16.30;46.68;101101.94;2056055;28;20382;-57
2023/04/14 04:30:57;;;;;;;;;;;;;;;16.32;46.41;101112.47;2062818;28;20381;-57
2023/04/14 04:31:59;;;;;;;;;;;;;;;16.30;46.46;101099.22;2065691;28;19964;-58
2023/04/14 04:33:03;;;;;;;;;;;;;;;16.30;46.72;101110.13;2062961;28;19973;-57
2023/04/14 04:34:06;;;;;;;;;;;;;;;16.31;46.50;101106.25;2062936;28;19952;-58
2023/04/14 04:35:12;;;;;;;;;;;;;;;16.30;46.50;101104.66;2055098;28;20008;-58
2023/04/14 04:36:17;;;;;;;;;;;;;;;16.30;46.32;101104.66;2062795;28;19976;-56
2023/04/14 04:37:21;;;;;;;;;;;;;;;16.30;46.62;101104.66;2067009;28;20003;-56
2023/04/14 04:38:23;;;;;;;;;;;;;;;16.29;46.38;101103.09;2060047;28;20000;-57
2023/04/14 04:39:26;;;;;;;;;;;;;;;16.29;46.53;101105.84;2055837;28;19934;-57
2023/04/14 04:40:34;;;;;;;;;;;;;;;16.30;46.23;101103.88;2056642;28;20001;-56
2023/04/14 04:41:37;;;;;;;;;;;;;;;16.29;46.32;101108.56;2062033;28;20463;-57
2023/04/14 04:42:39;;;;;;;;;;;;;;;16.29;46.21;101111.28;2063065;28;19937;-58
2023/04/14 04:43:43;;;;;;;;;;;;;;;16.29;46.21;101108.56;2054709;28;19930;-56
2023/04/14 04:44:45;;;;;;;;;;;;;;;16.29;46.43;101105.03;2063180;28;20017;-58
2023/04/14 04:45:59;;;;;;;;;;;;;;;16.28;46.41;101115.16;2070851;28;19985;-57
2023/04/14 04:47:02;;;;;;;;;;;;;;;16.29;46.45;101110.50;2069777;28;19979;-58
2023/04/14 04:48:05;;;;;;;;;;;;;;;16.28;46.23;101111.66;2071574;28;19929;-57
2023/04/14 04:49:07;;;;;;;;;;;;;;;16.28;46.45;101111.66;2062877;28;20056;-58
2023/04/14 04:50:10;;;;;;;;;;;;;;;16.28;46.17;101111.66;2054856;28;20412;-57
2023/04/14 04:51:11;;;;;;;;;;;;;;;16.27;46.07;101116.31;2062163;28;20033;-57
2023/04/14 04:52:16;;;;;;;;;;;;;;;16.27;46.08;101119.03;2062887;28;19929;-56
2023/04/14 04:53:18;;;;;;;;;;;;;;;16.27;46.17;101105.41;2062658;28;20501;-58
2023/04/14 04:54:21;;;;;;;;;;;;;;;16.27;46.10;101120.97;2064642;28;20309;-56
2023/04/14 04:55:23;;;;;;;;;;;;;;;16.27;46.08;101119.03;2069757;28;20381;-57
2023/04/14 04:56:26;;;;;;;;;;;;;;;16.26;46.09;101114.75;2071085;28;20020;-58
2023/04/14 04:57:27;;;;;;;;;;;;;;;16.26;46.16;101120.19;2069269;28;19929;-59
2023/04/14 04:58:30;;;;;;;;;;;;;;;16.26;46.27;101120.19;2065532;28;19979;-58
2023/04/14 04:59:33;;;;;;;;;;;;;;;16.26;46.14;101117.47;2072126;28;19975;-56
2023/04/14 05:00:36;;;;;;;;;;;;;;;16.26;46.32;101122.13;2072072;28;20419;-58
2023/04/14 05:01:39;;;;;;;;;;;;;;;16.25;46.29;101124.06;2071349;28;20106;-57
2023/04/14 05:02:41;;;;;;;;;;;;;;;16.25;46.33;101118.63;2072351;28;19944;-58
2023/04/14 05:03:44;;;;;;;;;;;;;;;16.26;46.24;101120.19;2065124;28;20412;-57
2023/04/14 05:04:47;;;;;;;;;;;;;;;16.26;46.39;101119.41;2064624;28;20329;-55
2023/04/14 05:05:50;;;;;;;;;;;;;;;16.26;46.32;101122.94;2069504;28;19979;-56
2023/04/14 05:06:52;;;;;;;;;;;;;;;16.26;46.13;101119.41;2072585;28;19933;-57
2023/04/14 05:07:56;;;;;;;;;;;;;;;16.26;46.34;101124.84;2065326;28;20067;-56
2023/04/14 05:08:58;;;;;;;;;;;;;;;16.26;46.34;101128.38;2059933;28;20305;-57
2023/04/14 05:10:01;;;;;;;;;;;;;;;16.26;46.21;101124.84;2066597;28;20381;-57
2023/04/14 05:11:03;;;;;;;;;;;;;;;16.25;46.15;101126.78;2071783;28;19926;-58
2023/04/14 05:12:05;;;;;;;;;;;;;;;16.26;46.32;101124.84;2072861;28;20328;-57
2023/04/14 05:13:07;;;;;;;;;;;;;;;16.25;46.19;101123.31;2071024;28;20270;-57
2023/04/14 05:14:10;;;;;;;;;;;;;;;16.25;46.13;101132.25;2072304;28;19983;-58
2023/04/14 05:15:11;;;;;;;;;;;;;;;16.26;46.19;101130.31;2063611;28;19979;-57
2023/04/14 05:16:15;;;;;;;;;;;;;;;16.25;46.04;101134.19;2064413;28;19930;-58
2023/04/14 05:17:17;;;;;;;;;;;;;;;16.25;46.22;101137.69;2074197;28;20392;-58
2023/04/14 05:18:20;;;;;;;;;;;;;;;16.24;46.16;101136.13;2072954;28;20325;-55
2023/04/14 05:19:22;;;;;;;;;;;;;;;16.25;46.18;101131.47;2073043;28;19933;-57
2023/04/14 05:20:24;;;;;;;;;;;;;;;16.24;46.03;101136.13;2071896;28;19925;-60
2023/04/14 05:21:27;;;;;;;;;;;;;;;16.24;46.00;101133.41;2072784;28;20310;-55
2023/04/14 05:22:29;;;;;;;;;;;;;;;16.24;45.99;101138.84;2065321;28;19953;-57
2023/04/14 05:23:34;;;;;;;;;;;;;;;16.24;46.30;101138.84;2070078;28;19933;-55
2023/04/14 05:24:36;;;;;;;;;;;;;;;16.24;45.98;101144.31;2072733;28;19934;-57
2023/04/14 05:25:38;;;;;;;;;;;;;;;16.24;46.20;101141.56;2065572;28;19929;-56
2023/04/14 05:26:41;;;;;;;;;;;;;;;16.24;46.19;101135.34;2065830;28;20384;-55
2023/04/14 05:27:45;;;;;;;;;;;;;;;16.23;45.90;101145.47;2065020;28;20382;-57
2023/04/14 05:28:48;;;;;;;;;;;;;;;16.23;46.09;101139.22;2068269;28;20413;-58